sensor_id;sensor_type;location;lat;lon;timestamp;P1;durP1;ratioP1;P2;durP2;ratioP2
50417;SDS011;36346;48.280;14.292;2023-11-21T00:00:04;10.38;;;10.30;;
50417;SDS011;36346;48.280;14.292;2023-11-21T00:02:39;9.92;;;9.87;;
50417;SDS011;36346;48.280;14.292;2023-11-21T00:05:09;10.38;;;10.34;;
50417;SDS011;36346;48.280;14.292;2023-11-21T00:07:38;10.39;;;10.36;;
50417;SDS011;36346;48.280;14.292;2023-11-21T00:10:06;10.29;;;10.19;;
50417;SDS011;36346;48.280;14.292;2023-11-21T00:12:38;9.70;;;9.63;;
50417;SDS011;36346;48.280;14.292;2023-11-21T00:15:10;9.93;;;9.91;;
50417;SDS011;36346;48.280;14.292;2023-11-21T00:17:41;9.37;;;9.33;;
50417;SDS011;36346;48.280;14.292;2023-11-21T00:20:10;8.56;;;8.54;;
50417;SDS011;36346;48.280;14.292;2023-11-21T00:22:41;7.91;;;7.88;;
50417;SDS011;36346;48.280;14.292;2023-11-21T00:25:11;7.89;;;7.87;;
50417;SDS011;36346;48.280;14.292;2023-11-21T00:27:42;8.04;;;8.00;;
50417;SDS011;36346;48.280;14.292;2023-11-21T00:30:12;7.43;;;7.35;;
50417;SDS011;36346;48.280;14.292;2023-11-21T00:32:40;6.49;;;6.48;;
50417;SDS011;36346;48.280;14.292;2023-11-21T00:35:08;7.03;;;6.97;;
50417;SDS011;36346;48.280;14.292;2023-11-21T00:37:37;7.75;;;7.70;;
50417;SDS011;36346;48.280;14.292;2023-11-21T00:40:07;7.47;;;7.39;;
50417;SDS011;36346;48.280;14.292;2023-11-21T00:42:36;8.02;;;7.98;;
50417;SDS011;36346;48.280;14.292;2023-11-21T00:45:05;8.52;;;8.50;;
50417;SDS011;36346;48.280;14.292;2023-11-21T00:47:34;9.46;;;9.42;;
50417;SDS011;36346;48.280;14.292;2023-11-21T00:50:02;8.29;;;8.27;;
50417;SDS011;36346;48.280;14.292;2023-11-21T00:52:30;8.07;;;8.03;;
50417;SDS011;36346;48.280;14.292;2023-11-21T00:54:58;7.67;;;7.64;;
50417;SDS011;36346;48.280;14.292;2023-11-21T00:57:28;6.83;;;6.82;;
50417;SDS011;36346;48.280;14.292;2023-11-21T00:59:56;6.91;;;6.88;;
50417;SDS011;36346;48.280;14.292;2023-11-21T01:02:25;7.08;;;7.03;;
50417;SDS011;36346;48.280;14.292;2023-11-21T01:04:53;7.65;;;7.59;;
50417;SDS011;36346;48.280;14.292;2023-11-21T01:07:21;7.84;;;7.81;;
50417;SDS011;36346;48.280;14.292;2023-11-21T01:09:50;7.95;;;7.93;;
50417;SDS011;36346;48.280;14.292;2023-11-21T01:12:19;7.36;;;7.33;;
50417;SDS011;36346;48.280;14.292;2023-11-21T01:14:47;7.87;;;7.83;;
50417;SDS011;36346;48.280;14.292;2023-11-21T01:17:15;7.94;;;7.91;;
50417;SDS011;36346;48.280;14.292;2023-11-21T01:19:44;8.09;;;8.06;;
50417;SDS011;36346;48.280;14.292;2023-11-21T01:22:12;8.52;;;8.51;;
50417;SDS011;36346;48.280;14.292;2023-11-21T01:24:40;8.72;;;8.72;;
50417;SDS011;36346;48.280;14.292;2023-11-21T01:27:09;7.81;;;7.79;;
50417;SDS011;36346;48.280;14.292;2023-11-21T01:29:37;7.98;;;7.97;;
50417;SDS011;36346;48.280;14.292;2023-11-21T01:32:05;7.58;;;7.55;;
50417;SDS011;36346;48.280;14.292;2023-11-21T01:34:36;7.29;;;7.27;;
50417;SDS011;36346;48.280;14.292;2023-11-21T01:37:05;7.02;;;7.01;;
50417;SDS011;36346;48.280;14.292;2023-11-21T01:39:33;7.29;;;7.28;;
50417;SDS011;36346;48.280;14.292;2023-11-21T01:42:01;7.60;;;7.57;;
50417;SDS011;36346;48.280;14.292;2023-11-21T01:44:29;7.41;;;7.37;;
50417;SDS011;36346;48.280;14.292;2023-11-21T01:46:57;7.20;;;7.19;;
50417;SDS011;36346;48.280;14.292;2023-11-21T01:49:26;7.10;;;7.09;;
50417;SDS011;36346;48.280;14.292;2023-11-21T01:51:54;7.00;;;7.00;;
50417;SDS011;36346;48.280;14.292;2023-11-21T01:54:22;7.28;;;7.27;;
50417;SDS011;36346;48.280;14.292;2023-11-21T01:56:51;7.76;;;7.75;;
50417;SDS011;36346;48.280;14.292;2023-11-21T01:59:20;9.00;;;8.98;;
50417;SDS011;36346;48.280;14.292;2023-11-21T02:01:49;7.84;;;7.83;;
50417;SDS011;36346;48.280;14.292;2023-11-21T02:04:20;7.31;;;7.28;;
50417;SDS011;36346;48.280;14.292;2023-11-21T02:06:49;7.08;;;7.03;;
50417;SDS011;36346;48.280;14.292;2023-11-21T02:09:25;6.55;;;6.53;;
50417;SDS011;36346;48.280;14.292;2023-11-21T02:12:00;6.88;;;6.87;;
50417;SDS011;36346;48.280;14.292;2023-11-21T02:14:29;7.27;;;7.26;;
50417;SDS011;36346;48.280;14.292;2023-11-21T02:16:58;6.90;;;6.90;;
50417;SDS011;36346;48.280;14.292;2023-11-21T02:19:26;7.34;;;7.34;;
50417;SDS011;36346;48.280;14.292;2023-11-21T02:21:56;7.02;;;7.00;;
50417;SDS011;36346;48.280;14.292;2023-11-21T02:24:34;7.03;;;6.99;;
50417;SDS011;36346;48.280;14.292;2023-11-21T02:27:04;6.81;;;6.79;;
50417;SDS011;36346;48.280;14.292;2023-11-21T02:29:34;6.91;;;6.89;;
50417;SDS011;36346;48.280;14.292;2023-11-21T02:32:02;6.91;;;6.90;;
50417;SDS011;36346;48.280;14.292;2023-11-21T02:34:31;6.43;;;6.41;;
50417;SDS011;36346;48.280;14.292;2023-11-21T02:36:59;6.57;;;6.54;;
50417;SDS011;36346;48.280;14.292;2023-11-21T02:39:27;6.34;;;6.32;;
50417;SDS011;36346;48.280;14.292;2023-11-21T02:41:56;6.39;;;6.38;;
50417;SDS011;36346;48.280;14.292;2023-11-21T02:44:23;6.31;;;6.31;;
50417;SDS011;36346;48.280;14.292;2023-11-21T02:46:52;6.66;;;6.65;;
50417;SDS011;36346;48.280;14.292;2023-11-21T02:49:20;6.26;;;6.26;;
50417;SDS011;36346;48.280;14.292;2023-11-21T02:51:49;6.33;;;6.33;;
50417;SDS011;36346;48.280;14.292;2023-11-21T02:54:17;6.80;;;6.80;;
50417;SDS011;36346;48.280;14.292;2023-11-21T02:56:47;6.32;;;6.32;;
50417;SDS011;36346;48.280;14.292;2023-11-21T02:59:15;6.74;;;6.73;;
50417;SDS011;36346;48.280;14.292;2023-11-21T03:01:44;6.62;;;6.62;;
50417;SDS011;36346;48.280;14.292;2023-11-21T03:04:12;6.21;;;6.21;;
50417;SDS011;36346;48.280;14.292;2023-11-21T03:06:45;6.90;;;6.90;;
50417;SDS011;36346;48.280;14.292;2023-11-21T03:09:14;6.97;;;6.97;;
50417;SDS011;36346;48.280;14.292;2023-11-21T03:11:42;6.89;;;6.89;;
50417;SDS011;36346;48.280;14.292;2023-11-21T03:14:10;7.20;;;7.19;;
50417;SDS011;36346;48.280;14.292;2023-11-21T03:16:39;7.32;;;7.32;;
50417;SDS011;36346;48.280;14.292;2023-11-21T03:19:08;7.24;;;7.24;;
50417;SDS011;36346;48.280;14.292;2023-11-21T03:21:37;6.99;;;6.98;;
50417;SDS011;36346;48.280;14.292;2023-11-21T03:24:05;6.90;;;6.90;;
50417;SDS011;36346;48.280;14.292;2023-11-21T03:26:35;6.99;;;6.99;;
50417;SDS011;36346;48.280;14.292;2023-11-21T03:29:06;6.79;;;6.79;;
50417;SDS011;36346;48.280;14.292;2023-11-21T03:31:34;6.61;;;6.60;;
50417;SDS011;36346;48.280;14.292;2023-11-21T03:34:02;6.63;;;6.63;;
50417;SDS011;36346;48.280;14.292;2023-11-21T03:36:31;6.70;;;6.70;;
50417;SDS011;36346;48.280;14.292;2023-11-21T03:39:00;6.62;;;6.62;;
50417;SDS011;36346;48.280;14.292;2023-11-21T03:41:28;6.95;;;6.93;;
50417;SDS011;36346;48.280;14.292;2023-11-21T03:43:56;6.43;;;6.42;;
50417;SDS011;36346;48.280;14.292;2023-11-21T03:46:24;6.85;;;6.84;;
50417;SDS011;36346;48.280;14.292;2023-11-21T03:48:53;6.85;;;6.83;;
50417;SDS011;36346;48.280;14.292;2023-11-21T03:51:23;7.26;;;7.26;;
50417;SDS011;36346;48.280;14.292;2023-11-21T03:53:52;7.10;;;7.10;;
50417;SDS011;36346;48.280;14.292;2023-11-21T03:56:20;6.45;;;6.44;;
50417;SDS011;36346;48.280;14.292;2023-11-21T03:58:49;6.96;;;6.96;;
50417;SDS011;36346;48.280;14.292;2023-11-21T04:01:19;7.34;;;7.34;;
50417;SDS011;36346;48.280;14.292;2023-11-21T04:03:50;7.68;;;7.67;;
50417;SDS011;36346;48.280;14.292;2023-11-21T04:06:19;7.60;;;7.60;;
50417;SDS011;36346;48.280;14.292;2023-11-21T04:08:47;7.50;;;7.47;;
50417;SDS011;36346;48.280;14.292;2023-11-21T04:11:15;7.62;;;7.61;;
50417;SDS011;36346;48.280;14.292;2023-11-21T04:13:43;7.28;;;7.28;;
50417;SDS011;36346;48.280;14.292;2023-11-21T04:16:11;7.01;;;7.01;;
50417;SDS011;36346;48.280;14.292;2023-11-21T04:18:39;7.90;;;7.90;;
50417;SDS011;36346;48.280;14.292;2023-11-21T04:21:07;8.03;;;8.03;;
50417;SDS011;36346;48.280;14.292;2023-11-21T04:23:36;7.56;;;7.56;;
50417;SDS011;36346;48.280;14.292;2023-11-21T04:26:04;7.73;;;7.73;;
50417;SDS011;36346;48.280;14.292;2023-11-21T04:28:32;7.70;;;7.70;;
50417;SDS011;36346;48.280;14.292;2023-11-21T04:31:00;7.28;;;7.27;;
50417;SDS011;36346;48.280;14.292;2023-11-21T04:33:28;7.64;;;7.62;;
50417;SDS011;36346;48.280;14.292;2023-11-21T04:35:56;7.53;;;7.52;;
50417;SDS011;36346;48.280;14.292;2023-11-21T04:38:25;7.51;;;7.51;;
50417;SDS011;36346;48.280;14.292;2023-11-21T04:40:53;7.30;;;7.30;;
50417;SDS011;36346;48.280;14.292;2023-11-21T04:43:21;6.80;;;6.80;;
50417;SDS011;36346;48.280;14.292;2023-11-21T04:45:49;5.98;;;5.98;;
50417;SDS011;36346;48.280;14.292;2023-11-21T04:48:17;6.28;;;6.24;;
50417;SDS011;36346;48.280;14.292;2023-11-21T04:50:45;6.52;;;6.49;;
50417;SDS011;36346;48.280;14.292;2023-11-21T04:53:14;6.36;;;6.32;;
50417;SDS011;36346;48.280;14.292;2023-11-21T04:55:42;5.98;;;5.91;;
50417;SDS011;36346;48.280;14.292;2023-11-21T04:58:10;5.15;;;5.10;;
50417;SDS011;36346;48.280;14.292;2023-11-21T05:00:40;5.07;;;5.05;;
50417;SDS011;36346;48.280;14.292;2023-11-21T05:03:09;5.76;;;5.70;;
50417;SDS011;36346;48.280;14.292;2023-11-21T05:05:37;7.32;;;7.22;;
50417;SDS011;36346;48.280;14.292;2023-11-21T05:08:06;7.98;;;7.94;;
50417;SDS011;36346;48.280;14.292;2023-11-21T05:10:34;7.42;;;7.36;;
50417;SDS011;36346;48.280;14.292;2023-11-21T05:13:07;6.57;;;6.52;;
50417;SDS011;36346;48.280;14.292;2023-11-21T05:15:38;6.28;;;6.20;;
50417;SDS011;36346;48.280;14.292;2023-11-21T05:18:07;5.76;;;5.72;;
50417;SDS011;36346;48.280;14.292;2023-11-21T05:20:35;5.98;;;5.95;;
50417;SDS011;36346;48.280;14.292;2023-11-21T05:23:03;6.10;;;6.08;;
50417;SDS011;36346;48.280;14.292;2023-11-21T05:25:33;5.60;;;5.59;;
50417;SDS011;36346;48.280;14.292;2023-11-21T05:28:04;5.54;;;5.54;;
50417;SDS011;36346;48.280;14.292;2023-11-21T05:30:45;5.68;;;5.66;;
50417;SDS011;36346;48.280;14.292;2023-11-21T05:33:43;6.50;;;6.29;;
50417;SDS011;36346;48.280;14.292;2023-11-21T05:36:11;6.07;;;5.99;;
50417;SDS011;36346;48.280;14.292;2023-11-21T05:38:39;6.25;;;6.18;;
50417;SDS011;36346;48.280;14.292;2023-11-21T05:41:09;6.71;;;6.67;;
50417;SDS011;36346;48.280;14.292;2023-11-21T05:43:41;6.34;;;6.31;;
50417;SDS011;36346;48.280;14.292;2023-11-21T05:46:10;6.28;;;6.23;;
50417;SDS011;36346;48.280;14.292;2023-11-21T05:48:39;6.69;;;6.63;;
50417;SDS011;36346;48.280;14.292;2023-11-21T05:51:08;7.07;;;6.97;;
50417;SDS011;36346;48.280;14.292;2023-11-21T05:53:37;7.10;;;7.04;;
50417;SDS011;36346;48.280;14.292;2023-11-21T05:56:05;8.65;;;8.61;;
50417;SDS011;36346;48.280;14.292;2023-11-21T05:58:33;12.17;;;12.03;;
50417;SDS011;36346;48.280;14.292;2023-11-21T06:01:02;14.27;;;13.75;;
50417;SDS011;36346;48.280;14.292;2023-11-21T06:03:35;13.12;;;12.82;;
50417;SDS011;36346;48.280;14.292;2023-11-21T06:06:04;13.66;;;13.36;;
50417;SDS011;36346;48.280;14.292;2023-11-21T06:08:32;12.07;;;11.73;;
50417;SDS011;36346;48.280;14.292;2023-11-21T06:11:00;11.18;;;10.95;;
50417;SDS011;36346;48.280;14.292;2023-11-21T06:13:30;10.30;;;10.10;;
50417;SDS011;36346;48.280;14.292;2023-11-21T06:15:58;10.07;;;9.89;;
50417;SDS011;36346;48.280;14.292;2023-11-21T06:18:28;8.67;;;8.59;;
50417;SDS011;36346;48.280;14.292;2023-11-21T06:20:56;7.63;;;7.57;;
50417;SDS011;36346;48.280;14.292;2023-11-21T06:23:24;7.44;;;7.35;;
50417;SDS011;36346;48.280;14.292;2023-11-21T06:25:52;7.21;;;7.14;;
50417;SDS011;36346;48.280;14.292;2023-11-21T06:28:21;7.31;;;7.27;;
50417;SDS011;36346;48.280;14.292;2023-11-21T06:30:50;7.39;;;7.34;;
50417;SDS011;36346;48.280;14.292;2023-11-21T06:33:18;7.89;;;7.82;;
50417;SDS011;36346;48.280;14.292;2023-11-21T06:35:47;7.76;;;7.68;;
50417;SDS011;36346;48.280;14.292;2023-11-21T06:38:15;7.30;;;7.20;;
50417;SDS011;36346;48.280;14.292;2023-11-21T06:40:43;7.04;;;7.00;;
50417;SDS011;36346;48.280;14.292;2023-11-21T06:43:13;7.54;;;7.53;;
50417;SDS011;36346;48.280;14.292;2023-11-21T06:45:43;7.20;;;7.20;;
50417;SDS011;36346;48.280;14.292;2023-11-21T06:48:12;7.39;;;7.37;;
50417;SDS011;36346;48.280;14.292;2023-11-21T06:50:40;7.26;;;7.22;;
50417;SDS011;36346;48.280;14.292;2023-11-21T06:53:09;6.94;;;6.92;;
50417;SDS011;36346;48.280;14.292;2023-11-21T06:55:37;6.65;;;6.65;;
50417;SDS011;36346;48.280;14.292;2023-11-21T06:58:08;6.82;;;6.80;;
50417;SDS011;36346;48.280;14.292;2023-11-21T07:00:37;6.75;;;6.74;;
50417;SDS011;36346;48.280;14.292;2023-11-21T07:03:06;7.17;;;7.16;;
50417;SDS011;36346;48.280;14.292;2023-11-21T07:05:34;7.86;;;7.82;;
50417;SDS011;36346;48.280;14.292;2023-11-21T07:08:02;7.76;;;7.75;;
50417;SDS011;36346;48.280;14.292;2023-11-21T07:10:32;7.82;;;7.80;;
50417;SDS011;36346;48.280;14.292;2023-11-21T07:13:01;7.91;;;7.88;;
50417;SDS011;36346;48.280;14.292;2023-11-21T07:15:29;7.67;;;7.66;;
50417;SDS011;36346;48.280;14.292;2023-11-21T07:17:57;8.12;;;8.12;;
50417;SDS011;36346;48.280;14.292;2023-11-21T07:20:26;7.53;;;7.52;;
50417;SDS011;36346;48.280;14.292;2023-11-21T07:22:55;7.18;;;7.18;;
50417;SDS011;36346;48.280;14.292;2023-11-21T07:25:24;10.55;;;10.51;;
50417;SDS011;36346;48.280;14.292;2023-11-21T07:27:52;14.38;;;14.26;;
50417;SDS011;36346;48.280;14.292;2023-11-21T07:30:23;16.71;;;16.36;;
50417;SDS011;36346;48.280;14.292;2023-11-21T07:32:51;27.20;;;26.42;;
50417;SDS011;36346;48.280;14.292;2023-11-21T07:35:19;30.29;;;29.45;;
50417;SDS011;36346;48.280;14.292;2023-11-21T07:37:47;29.10;;;28.17;;
50417;SDS011;36346;48.280;14.292;2023-11-21T07:40:16;27.61;;;26.85;;
50417;SDS011;36346;48.280;14.292;2023-11-21T07:42:45;21.23;;;20.83;;
50417;SDS011;36346;48.280;14.292;2023-11-21T07:45:13;16.67;;;16.21;;
50417;SDS011;36346;48.280;14.292;2023-11-21T07:47:43;12.23;;;12.08;;
50417;SDS011;36346;48.280;14.292;2023-11-21T07:50:12;13.18;;;13.01;;
50417;SDS011;36346;48.280;14.292;2023-11-21T07:52:41;17.01;;;16.65;;
50417;SDS011;36346;48.280;14.292;2023-11-21T07:55:09;16.82;;;16.52;;
50417;SDS011;36346;48.280;14.292;2023-11-21T07:57:37;14.07;;;13.78;;
50417;SDS011;36346;48.280;14.292;2023-11-21T08:00:06;11.04;;;10.81;;
50417;SDS011;36346;48.280;14.292;2023-11-21T08:02:40;10.09;;;9.98;;
50417;SDS011;36346;48.280;14.292;2023-11-21T08:05:13;8.67;;;8.62;;
50417;SDS011;36346;48.280;14.292;2023-11-21T08:07:54;7.73;;;7.70;;
50417;SDS011;36346;48.280;14.292;2023-11-21T08:10:23;7.95;;;7.91;;
50417;SDS011;36346;48.280;14.292;2023-11-21T08:12:51;8.93;;;8.83;;
50417;SDS011;36346;48.280;14.292;2023-11-21T08:15:21;9.49;;;9.41;;
50417;SDS011;36346;48.280;14.292;2023-11-21T08:17:49;8.13;;;8.03;;
50417;SDS011;36346;48.280;14.292;2023-11-21T08:20:18;7.97;;;7.87;;
50417;SDS011;36346;48.280;14.292;2023-11-21T08:22:46;7.68;;;7.58;;
50417;SDS011;36346;48.280;14.292;2023-11-21T08:25:17;6.80;;;6.66;;
50417;SDS011;36346;48.280;14.292;2023-11-21T08:27:48;7.03;;;6.92;;
50417;SDS011;36346;48.280;14.292;2023-11-21T08:30:16;6.86;;;6.78;;
50417;SDS011;36346;48.280;14.292;2023-11-21T08:32:47;6.60;;;6.57;;
50417;SDS011;36346;48.280;14.292;2023-11-21T08:35:16;7.27;;;7.25;;
50417;SDS011;36346;48.280;14.292;2023-11-21T08:37:44;8.09;;;8.07;;
50417;SDS011;36346;48.280;14.292;2023-11-21T08:40:13;8.07;;;8.07;;
50417;SDS011;36346;48.280;14.292;2023-11-21T08:42:45;8.58;;;8.57;;
50417;SDS011;36346;48.280;14.292;2023-11-21T08:45:16;8.85;;;8.84;;
50417;SDS011;36346;48.280;14.292;2023-11-21T08:47:45;8.77;;;8.77;;
50417;SDS011;36346;48.280;14.292;2023-11-21T08:50:14;8.67;;;8.64;;
50417;SDS011;36346;48.280;14.292;2023-11-21T08:52:43;8.31;;;8.31;;
50417;SDS011;36346;48.280;14.292;2023-11-21T08:55:12;8.47;;;8.46;;
50417;SDS011;36346;48.280;14.292;2023-11-21T08:57:43;8.82;;;8.82;;
50417;SDS011;36346;48.280;14.292;2023-11-21T09:00:13;9.24;;;9.22;;
50417;SDS011;36346;48.280;14.292;2023-11-21T09:02:44;8.58;;;8.57;;
50417;SDS011;36346;48.280;14.292;2023-11-21T09:05:13;8.69;;;8.69;;
50417;SDS011;36346;48.280;14.292;2023-11-21T09:07:42;9.01;;;8.97;;
50417;SDS011;36346;48.280;14.292;2023-11-21T09:10:10;9.17;;;9.14;;
50417;SDS011;36346;48.280;14.292;2023-11-21T09:12:38;10.65;;;10.64;;
50417;SDS011;36346;48.280;14.292;2023-11-21T09:15:07;11.41;;;11.39;;
50417;SDS011;36346;48.280;14.292;2023-11-21T09:17:37;10.99;;;10.95;;
50417;SDS011;36346;48.280;14.292;2023-11-21T09:20:06;10.60;;;10.59;;
50417;SDS011;36346;48.280;14.292;2023-11-21T09:22:38;10.50;;;10.49;;
50417;SDS011;36346;48.280;14.292;2023-11-21T09:25:07;10.55;;;10.55;;
50417;SDS011;36346;48.280;14.292;2023-11-21T09:27:36;10.09;;;10.09;;
50417;SDS011;36346;48.280;14.292;2023-11-21T09:30:05;10.20;;;10.20;;
50417;SDS011;36346;48.280;14.292;2023-11-21T09:32:38;10.34;;;10.31;;
50417;SDS011;36346;48.280;14.292;2023-11-21T09:35:09;9.78;;;9.78;;
50417;SDS011;36346;48.280;14.292;2023-11-21T09:37:38;8.81;;;8.81;;
50417;SDS011;36346;48.280;14.292;2023-11-21T09:40:09;9.57;;;9.55;;
50417;SDS011;36346;48.280;14.292;2023-11-21T09:42:56;8.67;;;8.67;;
50417;SDS011;36346;48.280;14.292;2023-11-21T09:45:27;9.01;;;9.01;;
50417;SDS011;36346;48.280;14.292;2023-11-21T09:47:57;8.53;;;8.53;;
50417;SDS011;36346;48.280;14.292;2023-11-21T09:50:27;8.54;;;8.51;;
50417;SDS011;36346;48.280;14.292;2023-11-21T09:55:44;8.21;;;8.18;;
50417;SDS011;36346;48.280;14.292;2023-11-21T09:58:18;7.38;;;7.36;;
50417;SDS011;36346;48.280;14.292;2023-11-21T10:00:49;6.87;;;6.87;;
50417;SDS011;36346;48.280;14.292;2023-11-21T10:03:21;6.67;;;6.67;;
50417;SDS011;36346;48.280;14.292;2023-11-21T10:05:50;6.85;;;6.85;;
50417;SDS011;36346;48.280;14.292;2023-11-21T10:08:21;6.22;;;6.22;;
50417;SDS011;36346;48.280;14.292;2023-11-21T10:10:51;6.09;;;6.09;;
50417;SDS011;36346;48.280;14.292;2023-11-21T10:13:22;5.94;;;5.94;;
50417;SDS011;36346;48.280;14.292;2023-11-21T10:15:52;5.23;;;5.22;;
50417;SDS011;36346;48.280;14.292;2023-11-21T10:18:22;4.90;;;4.85;;
50417;SDS011;36346;48.280;14.292;2023-11-21T10:20:52;4.62;;;4.55;;
50417;SDS011;36346;48.280;14.292;2023-11-21T10:23:22;4.99;;;4.92;;
50417;SDS011;36346;48.280;14.292;2023-11-21T10:25:54;4.69;;;4.65;;
50417;SDS011;36346;48.280;14.292;2023-11-21T10:28:29;4.54;;;4.52;;
50417;SDS011;36346;48.280;14.292;2023-11-21T10:30:57;4.83;;;4.81;;
50417;SDS011;36346;48.280;14.292;2023-11-21T10:33:28;4.84;;;4.82;;
50417;SDS011;36346;48.280;14.292;2023-11-21T10:35:57;4.62;;;4.60;;
50417;SDS011;36346;48.280;14.292;2023-11-21T10:38:25;5.82;;;5.82;;
50417;SDS011;36346;48.280;14.292;2023-11-21T10:40:55;4.61;;;4.60;;
50417;SDS011;36346;48.280;14.292;2023-11-21T10:43:26;4.91;;;4.90;;
50417;SDS011;36346;48.280;14.292;2023-11-21T10:45:57;5.01;;;5.00;;
50417;SDS011;36346;48.280;14.292;2023-11-21T10:48:28;4.91;;;4.91;;
50417;SDS011;36346;48.280;14.292;2023-11-21T10:50:57;5.07;;;5.07;;
50417;SDS011;36346;48.280;14.292;2023-11-21T10:53:28;4.99;;;4.98;;
50417;SDS011;36346;48.280;14.292;2023-11-21T10:56:04;4.79;;;4.79;;
50417;SDS011;36346;48.280;14.292;2023-11-21T10:58:35;4.96;;;4.96;;
50417;SDS011;36346;48.280;14.292;2023-11-21T11:01:05;5.07;;;5.06;;
50417;SDS011;36346;48.280;14.292;2023-11-21T11:03:34;4.78;;;4.78;;
50417;SDS011;36346;48.280;14.292;2023-11-21T11:06:04;4.86;;;4.86;;
50417;SDS011;36346;48.280;14.292;2023-11-21T11:08:34;4.71;;;4.70;;
50417;SDS011;36346;48.280;14.292;2023-11-21T11:11:04;4.91;;;4.90;;
50417;SDS011;36346;48.280;14.292;2023-11-21T11:13:33;5.11;;;5.10;;
50417;SDS011;36346;48.280;14.292;2023-11-21T11:16:01;4.95;;;4.94;;
50417;SDS011;36346;48.280;14.292;2023-11-21T11:18:31;5.14;;;5.14;;
50417;SDS011;36346;48.280;14.292;2023-11-21T11:21:37;5.53;;;5.53;;
50417;SDS011;36346;48.280;14.292;2023-11-21T11:27:15;5.27;;;5.27;;
50417;SDS011;36346;48.280;14.292;2023-11-21T11:32:53;5.84;;;5.83;;
50417;SDS011;36346;48.280;14.292;2023-11-21T11:35:57;7.08;;;7.08;;
50417;SDS011;36346;48.280;14.292;2023-11-21T11:38:32;6.23;;;6.23;;
50417;SDS011;36346;48.280;14.292;2023-11-21T11:41:02;5.81;;;5.81;;
50417;SDS011;36346;48.280;14.292;2023-11-21T11:43:32;6.88;;;6.88;;
50417;SDS011;36346;48.280;14.292;2023-11-21T11:46:10;5.29;;;5.29;;
50417;SDS011;36346;48.280;14.292;2023-11-21T11:48:43;5.31;;;5.31;;
50417;SDS011;36346;48.280;14.292;2023-11-21T11:51:13;5.20;;;5.20;;
50417;SDS011;36346;48.280;14.292;2023-11-21T11:53:45;5.18;;;5.18;;
50417;SDS011;36346;48.280;14.292;2023-11-21T11:56:25;5.17;;;5.17;;
50417;SDS011;36346;48.280;14.292;2023-11-21T11:58:58;4.96;;;4.96;;
50417;SDS011;36346;48.280;14.292;2023-11-21T12:01:32;4.97;;;4.97;;
50417;SDS011;36346;48.280;14.292;2023-11-21T12:06:38;5.61;;;5.61;;
50417;SDS011;36346;48.280;14.292;2023-11-21T12:09:06;6.61;;;6.59;;
50417;SDS011;36346;48.280;14.292;2023-11-21T12:11:36;7.01;;;7.00;;
50417;SDS011;36346;48.280;14.292;2023-11-21T12:14:04;7.89;;;7.88;;
50417;SDS011;36346;48.280;14.292;2023-11-21T12:16:34;5.21;;;5.21;;
50417;SDS011;36346;48.280;14.292;2023-11-21T12:19:03;5.02;;;5.02;;
50417;SDS011;36346;48.280;14.292;2023-11-21T12:21:31;5.39;;;5.39;;
50417;SDS011;36346;48.280;14.292;2023-11-21T12:24:00;5.00;;;5.00;;
50417;SDS011;36346;48.280;14.292;2023-11-21T12:26:29;4.92;;;4.92;;
50417;SDS011;36346;48.280;14.292;2023-11-21T12:28:57;4.78;;;4.78;;
50417;SDS011;36346;48.280;14.292;2023-11-21T12:31:25;4.53;;;4.53;;
50417;SDS011;36346;48.280;14.292;2023-11-21T12:33:55;4.90;;;4.90;;
50417;SDS011;36346;48.280;14.292;2023-11-21T12:36:24;4.98;;;4.98;;
50417;SDS011;36346;48.280;14.292;2023-11-21T12:38:53;5.11;;;5.11;;
50417;SDS011;36346;48.280;14.292;2023-11-21T12:41:21;4.95;;;4.95;;
50417;SDS011;36346;48.280;14.292;2023-11-21T12:43:50;4.98;;;4.98;;
50417;SDS011;36346;48.280;14.292;2023-11-21T12:46:19;4.72;;;4.72;;
50417;SDS011;36346;48.280;14.292;2023-11-21T12:48:48;4.98;;;4.98;;
50417;SDS011;36346;48.280;14.292;2023-11-21T12:51:16;4.78;;;4.78;;
50417;SDS011;36346;48.280;14.292;2023-11-21T12:53:46;4.56;;;4.56;;
50417;SDS011;36346;48.280;14.292;2023-11-21T12:56:14;5.00;;;5.00;;
50417;SDS011;36346;48.280;14.292;2023-11-21T12:58:45;4.93;;;4.93;;
50417;SDS011;36346;48.280;14.292;2023-11-21T13:01:15;4.95;;;4.95;;
50417;SDS011;36346;48.280;14.292;2023-11-21T13:03:47;4.64;;;4.64;;
50417;SDS011;36346;48.280;14.292;2023-11-21T13:06:19;4.88;;;4.88;;
50417;SDS011;36346;48.280;14.292;2023-11-21T13:08:52;4.83;;;4.83;;
50417;SDS011;36346;48.280;14.292;2023-11-21T13:11:22;5.05;;;5.04;;
50417;SDS011;36346;48.280;14.292;2023-11-21T13:13:51;4.64;;;4.63;;
50417;SDS011;36346;48.280;14.292;2023-11-21T13:16:21;4.74;;;4.73;;
50417;SDS011;36346;48.280;14.292;2023-11-21T13:18:49;4.82;;;4.81;;
50417;SDS011;36346;48.280;14.292;2023-11-21T13:21:17;4.60;;;4.60;;
50417;SDS011;36346;48.280;14.292;2023-11-21T13:23:45;4.54;;;4.54;;
50417;SDS011;36346;48.280;14.292;2023-11-21T13:26:14;4.60;;;4.60;;
50417;SDS011;36346;48.280;14.292;2023-11-21T13:28:43;5.30;;;5.29;;
50417;SDS011;36346;48.280;14.292;2023-11-21T13:31:15;4.72;;;4.71;;
50417;SDS011;36346;48.280;14.292;2023-11-21T13:33:55;5.38;;;5.38;;
50417;SDS011;36346;48.280;14.292;2023-11-21T13:36:26;5.07;;;5.06;;
50417;SDS011;36346;48.280;14.292;2023-11-21T13:38:58;4.99;;;4.99;;
50417;SDS011;36346;48.280;14.292;2023-11-21T13:41:27;4.57;;;4.57;;
50417;SDS011;36346;48.280;14.292;2023-11-21T13:43:59;5.15;;;5.15;;
50417;SDS011;36346;48.280;14.292;2023-11-21T13:46:44;5.53;;;5.53;;
50417;SDS011;36346;48.280;14.292;2023-11-21T13:49:13;4.65;;;4.65;;
50417;SDS011;36346;48.280;14.292;2023-11-21T13:51:44;4.47;;;4.46;;
50417;SDS011;36346;48.280;14.292;2023-11-21T13:54:15;4.36;;;4.36;;
50417;SDS011;36346;48.280;14.292;2023-11-21T13:56:43;4.76;;;4.76;;
50417;SDS011;36346;48.280;14.292;2023-11-21T13:59:14;4.65;;;4.65;;
50417;SDS011;36346;48.280;14.292;2023-11-21T14:01:55;3.97;;;3.97;;
50417;SDS011;36346;48.280;14.292;2023-11-21T14:04:28;3.99;;;3.99;;
50417;SDS011;36346;48.280;14.292;2023-11-21T14:07:23;4.10;;;4.10;;
50417;SDS011;36346;48.280;14.292;2023-11-21T14:09:59;3.67;;;3.67;;
50417;SDS011;36346;48.280;14.292;2023-11-21T14:12:29;3.91;;;3.91;;
50417;SDS011;36346;48.280;14.292;2023-11-21T14:15:06;3.54;;;3.54;;
50417;SDS011;36346;48.280;14.292;2023-11-21T14:17:37;4.35;;;4.35;;
50417;SDS011;36346;48.280;14.292;2023-11-21T14:20:09;4.08;;;4.08;;
50417;SDS011;36346;48.280;14.292;2023-11-21T14:22:44;3.84;;;3.84;;
50417;SDS011;36346;48.280;14.292;2023-11-21T14:25:14;4.08;;;4.08;;
50417;SDS011;36346;48.280;14.292;2023-11-21T14:27:45;4.22;;;4.22;;
50417;SDS011;36346;48.280;14.292;2023-11-21T14:30:14;4.17;;;4.17;;
50417;SDS011;36346;48.280;14.292;2023-11-21T14:32:43;3.91;;;3.91;;
50417;SDS011;36346;48.280;14.292;2023-11-21T14:35:11;4.18;;;4.18;;
50417;SDS011;36346;48.280;14.292;2023-11-21T14:37:39;3.96;;;3.96;;
50417;SDS011;36346;48.280;14.292;2023-11-21T14:40:09;4.45;;;4.45;;
50417;SDS011;36346;48.280;14.292;2023-11-21T14:42:39;5.13;;;5.13;;
50417;SDS011;36346;48.280;14.292;2023-11-21T14:45:07;5.11;;;5.11;;
50417;SDS011;36346;48.280;14.292;2023-11-21T14:47:37;5.53;;;5.52;;
50417;SDS011;36346;48.280;14.292;2023-11-21T14:50:10;5.22;;;5.22;;
50417;SDS011;36346;48.280;14.292;2023-11-21T14:52:57;4.83;;;4.82;;
50417;SDS011;36346;48.280;14.292;2023-11-21T14:55:27;5.53;;;5.52;;
50417;SDS011;36346;48.280;14.292;2023-11-21T14:58:23;4.44;;;4.43;;